createdAt,value
2018-04-14T00:01:35.794Z,62.67
2018-04-14T00:04:06.275Z,68.20
2018-04-14T00:06:36.797Z,50.20
2018-04-14T00:09:07.629Z,57.80
2018-04-14T00:11:39.761Z,64.00
2018-04-14T00:14:10.694Z,58.83
2018-04-14T00:16:41.249Z,66.33
2018-04-14T00:19:11.965Z,57.90
2018-04-14T00:21:42.978Z,62.53
2018-04-14T00:24:13.745Z,63.90
2018-04-14T00:26:44.171Z,64.07
2018-04-14T00:29:14.811Z,62.17
2018-04-14T00:31:45.551Z,67.87
2018-04-14T00:34:16.110Z,61.07
2018-04-14T00:36:46.710Z,62.93
2018-04-14T00:42:18.064Z,59.37
2018-04-14T00:44:48.329Z,66.53
2018-04-14T00:47:19.581Z,75.73
2018-04-14T00:49:50.337Z,74.30
2018-04-14T00:54:56.758Z,71.40
2018-04-14T00:57:28.665Z,75.37
2018-04-14T00:59:59.405Z,83.77
2018-04-14T01:02:29.754Z,83.30
2018-04-14T01:05:00.082Z,85.60
2018-04-14T01:07:30.558Z,72.23
2018-04-14T01:10:01.323Z,74.53
2018-04-14T01:12:31.918Z,76.17
2018-04-14T01:15:02.209Z,74.07
2018-04-14T01:17:32.697Z,81.10
2018-04-14T01:20:03.718Z,74.87
2018-04-14T01:22:34.448Z,71.33
2018-04-14T01:25:04.870Z,72.43
2018-04-14T01:27:35.275Z,81.33
2018-04-14T01:30:05.570Z,77.83
2018-04-14T01:32:36.753Z,87.77
2018-04-14T01:35:07.604Z,74.90
2018-04-14T01:37:38.085Z,77.20
2018-04-14T01:40:08.345Z,91.97
2018-04-14T01:42:39.430Z,86.47
2018-04-14T01:45:09.713Z,82.33
2018-04-14T01:47:40.197Z,88.60
2018-04-14T01:50:10.530Z,95.27
2018-04-14T01:52:40.998Z,77.70
2018-04-14T01:55:12.305Z,77.13
2018-04-14T01:57:43.117Z,98.40
2018-04-14T02:00:13.519Z,90.40
2018-04-14T02:02:43.874Z,83.97
2018-04-14T02:05:14.357Z,93.37
2018-04-14T02:07:45.058Z,93.63
2018-04-14T02:10:15.621Z,88.40
2018-04-14T02:12:47.590Z,104.30
2018-04-14T02:15:19.271Z,87.13
2018-04-14T02:17:49.782Z,98.67
2018-04-14T02:20:20.286Z,90.10
2018-04-14T02:22:50.882Z,98.60
2018-04-14T02:25:21.542Z,93.33
2018-04-14T02:27:52.240Z,84.03
2018-04-14T02:30:22.553Z,84.33
2018-04-14T02:32:53.826Z,90.87
2018-04-14T02:35:24.531Z,93.10
2018-04-14T02:37:54.809Z,84.30
2018-04-14T02:40:25.129Z,96.13
2018-04-14T02:42:56.050Z,87.90
2018-04-14T02:45:26.414Z,80.57
2018-04-14T02:47:57.092Z,83.87
2018-04-14T02:50:27.754Z,84.97
2018-04-14T02:52:58.703Z,77.80
2018-04-14T02:55:29.062Z,75.10
2018-04-14T02:57:59.911Z,71.10
2018-04-14T03:00:30.460Z,70.63
2018-04-14T03:03:00.821Z,84.47
2018-04-14T03:05:31.873Z,84.17
2018-04-14T03:08:02.782Z,88.87
2018-04-14T03:10:33.343Z,77.23
2018-04-14T03:13:03.831Z,79.57
2018-04-14T03:15:34.742Z,73.27
2018-04-14T03:18:05.073Z,73.43
2018-04-14T03:20:35.622Z,65.40
2018-04-14T03:23:06.632Z,82.20
2018-04-14T03:25:37.262Z,63.07
2018-04-14T03:28:07.653Z,75.97
2018-04-14T03:30:38.612Z,71.67
2018-04-14T03:33:09.200Z,72.80
2018-04-14T03:35:39.579Z,68.97
2018-04-14T03:38:09.950Z,75.03
2018-04-14T03:40:41.001Z,79.20
2018-04-14T03:43:11.604Z,85.80
2018-04-14T03:45:42.583Z,77.47
2018-04-14T03:48:13.979Z,70.20
2018-04-14T03:50:44.549Z,80.10
2018-04-14T03:53:14.870Z,77.83
2018-04-14T03:55:45.579Z,75.77
2018-04-14T03:58:16.009Z,84.17
2018-04-14T04:00:46.461Z,74.87
2018-04-14T04:03:17.054Z,71.97
2018-04-14T04:05:47.726Z,86.80
2018-04-14T04:08:19.150Z,75.20
2018-04-14T04:10:49.534Z,77.73
2018-04-14T04:13:20.313Z,75.73
2018-04-14T04:15:51.290Z,81.00
2018-04-14T04:18:30.306Z,71.07
2018-04-14T04:24:17.731Z,67.77
2018-04-14T04:26:50.005Z,76.57
2018-04-14T04:29:20.266Z,77.03
2018-04-14T04:31:51.041Z,71.80
2018-04-14T04:34:21.326Z,71.23
2018-04-14T04:36:52.950Z,77.53
2018-04-14T04:39:23.234Z,73.97
2018-04-14T04:41:53.229Z,66.57
2018-04-14T04:44:23.871Z,70.00
2018-04-14T04:46:53.883Z,63.43
2018-04-14T04:49:23.959Z,79.40
2018-04-14T04:51:55.073Z,82.90
2018-04-14T04:54:25.178Z,77.23
2018-04-14T04:56:55.241Z,75.83
2018-04-14T04:59:27.865Z,75.20
2018-04-14T05:01:58.534Z,66.83
2018-04-14T05:04:28.574Z,70.53
2018-04-14T05:06:58.592Z,75.07
2018-04-14T05:09:28.842Z,72.30
2018-04-14T05:11:58.984Z,67.47
2018-04-14T05:14:30.072Z,69.07
2018-04-14T05:17:00.767Z,77.73
2018-04-14T05:19:32.542Z,69.90
2018-04-14T05:22:04.305Z,76.10
2018-04-14T05:24:34.779Z,77.80
2018-04-14T05:27:05.234Z,74.77
2018-04-14T05:29:35.494Z,70.77
2018-04-14T05:32:07.293Z,70.77
2018-04-14T05:34:37.608Z,76.07
2018-04-14T05:37:07.803Z,67.60
2018-04-14T05:39:38.127Z,71.83
2018-04-14T05:42:08.662Z,68.63
2018-04-14T05:44:39.400Z,68.83
2018-04-14T05:47:09.954Z,69.07
2018-04-14T05:49:40.467Z,65.97
2018-04-14T05:52:11.791Z,68.27
2018-04-14T05:54:42.138Z,77.27
2018-04-14T05:57:12.738Z,64.37
2018-04-14T05:59:43.493Z,64.10
2018-04-14T06:02:14.364Z,61.77
2018-04-14T06:04:45.662Z,63.10
2018-04-14T06:07:16.747Z,55.07
2018-04-14T06:10:20.429Z,61.67
2018-04-14T06:13:04.045Z,57.90
2018-04-14T06:15:36.804Z,61.73
2018-04-14T06:18:08.788Z,68.03
2018-04-14T06:20:41.614Z,58.77
2018-04-14T06:23:13.815Z,65.33
2018-04-14T06:25:45.923Z,60.70
2018-04-14T06:28:16.422Z,66.60
2018-04-14T06:30:46.451Z,58.77
2018-04-14T06:33:16.758Z,58.10
2018-04-14T06:35:47.466Z,61.60
2018-04-14T06:38:17.891Z,62.07
2018-04-14T06:40:47.967Z,67.03
2018-04-14T06:43:18.209Z,67.10
2018-04-14T06:45:48.555Z,65.50
2018-04-14T06:48:18.803Z,67.23
2018-04-14T06:50:49.741Z,66.33
2018-04-14T06:53:20.187Z,63.60
2018-04-14T06:55:50.591Z,64.93
2018-04-14T06:58:20.867Z,60.43
2018-04-14T07:00:51.021Z,71.97
2018-04-14T07:03:21.190Z,66.83
2018-04-14T07:05:52.918Z,64.40
2018-04-14T07:08:23.675Z,63.80
2018-04-14T07:10:53.933Z,73.83
2018-04-14T07:13:24.477Z,63.80
2018-04-14T07:15:54.970Z,63.50
2018-04-14T07:18:25.336Z,66.07
2018-04-14T07:20:55.904Z,55.73
2018-04-14T07:23:26.381Z,63.27
2018-04-14T07:25:56.709Z,64.40
2018-04-14T07:28:26.962Z,58.00
2018-04-14T07:30:57.667Z,61.43
2018-04-14T07:33:28.554Z,60.23
2018-04-14T07:35:58.838Z,61.37
2018-04-14T07:38:29.324Z,54.50
2018-04-14T07:41:00.101Z,53.57
2018-04-14T07:43:30.451Z,66.10
2018-04-14T07:46:01.533Z,56.87
2018-04-14T07:48:36.070Z,53.63
2018-04-14T07:51:06.234Z,52.97
2018-04-14T07:53:36.767Z,58.47
2018-04-14T07:56:07.262Z,50.83
2018-04-14T07:58:37.547Z,56.60
2018-04-14T08:01:07.794Z,46.17
2018-04-14T08:03:38.637Z,46.73
2018-04-14T08:06:08.779Z,48.23
2018-04-14T08:08:38.925Z,55.10
2018-04-14T08:11:10.819Z,41.30
2018-04-14T08:13:41.657Z,44.10
2018-04-14T08:16:12.544Z,43.43
2018-04-14T08:18:42.618Z,48.73
2018-04-14T08:21:12.993Z,39.30
2018-04-14T08:23:43.697Z,41.47
2018-04-14T08:26:13.954Z,42.30
2018-04-14T08:28:44.357Z,36.00
2018-04-14T08:31:14.877Z,36.70
2018-04-14T08:33:46.335Z,37.73
2018-04-14T08:36:16.946Z,45.30
2018-04-14T08:38:48.154Z,32.20
2018-04-14T08:41:19.638Z,37.03
2018-04-14T08:43:50.298Z,41.87
2018-04-14T08:46:21.541Z,33.53
2018-04-14T08:48:52.509Z,44.27
2018-04-14T08:51:23.735Z,32.23
2018-04-14T08:53:54.292Z,37.17
2018-04-14T08:56:24.654Z,30.77
2018-04-14T08:58:55.373Z,30.87
2018-04-14T09:01:26.375Z,33.50
2018-04-14T09:03:56.554Z,36.13
2018-04-14T09:06:27.022Z,33.87
2018-04-14T09:08:57.668Z,42.20
2018-04-14T09:11:28.282Z,32.20
2018-04-14T09:13:58.723Z,34.67
2018-04-14T09:16:29.558Z,35.43
2018-04-14T09:19:00.181Z,31.90
2018-04-14T09:21:31.464Z,40.27
2018-04-14T09:24:02.162Z,35.87
2018-04-14T09:26:33.822Z,31.00
2018-04-14T09:29:06.682Z,37.37
2018-04-14T09:31:38.933Z,33.37
2018-04-14T09:34:09.322Z,33.00
2018-04-14T09:36:40.024Z,38.40
2018-04-14T09:39:11.814Z,40.27
2018-04-14T09:41:42.772Z,36.80
2018-04-14T09:44:13.437Z,36.37
2018-04-14T09:46:44.269Z,36.60
2018-04-14T09:49:14.815Z,40.97
2018-04-14T09:51:45.243Z,37.63
2018-04-14T09:54:15.925Z,36.00
2018-04-14T09:56:46.445Z,34.40
2018-04-14T09:59:16.777Z,38.60
2018-04-14T10:01:51.912Z,46.03
2018-04-14T10:04:23.055Z,34.47
2018-04-14T10:06:53.686Z,40.00
2018-04-14T10:09:25.208Z,36.70
2018-04-14T10:11:55.523Z,37.83
2018-04-14T10:14:26.166Z,38.57
2018-04-14T10:16:56.984Z,38.57
2018-04-14T10:19:27.748Z,39.43
2018-04-14T10:22:00.129Z,41.03
2018-04-14T10:24:31.686Z,41.67
2018-04-14T10:27:02.424Z,42.70
2018-04-14T10:29:33.083Z,42.93
2018-04-14T10:32:04.402Z,36.70
2018-04-14T10:34:35.213Z,44.27
2018-04-14T10:37:05.779Z,44.57
2018-04-14T10:39:36.322Z,44.70
2018-04-14T10:42:07.208Z,44.67
2018-04-14T10:44:37.765Z,37.20
2018-04-14T10:47:08.492Z,44.00
2018-04-14T10:49:39.020Z,49.03
2018-04-14T10:52:09.834Z,42.33
2018-04-14T10:54:41.809Z,46.87
2018-04-14T10:57:18.764Z,49.57
2018-04-14T10:59:49.588Z,44.73
2018-04-14T11:02:20.578Z,47.93
2018-04-14T11:04:51.089Z,47.37
2018-04-14T11:07:22.553Z,48.50
2018-04-14T11:09:53.424Z,51.80
2018-04-14T11:12:24.762Z,47.80
2018-04-14T11:14:56.845Z,54.83
2018-04-14T11:17:27.645Z,49.63
2018-04-14T11:19:58.956Z,50.37
2018-04-14T11:22:29.389Z,48.53
2018-04-14T11:25:02.221Z,54.90
2018-04-14T11:27:33.454Z,52.87
2018-04-14T11:30:05.737Z,52.63
2018-04-14T11:32:36.480Z,49.70
2018-04-14T11:35:07.453Z,55.50
2018-04-14T11:37:46.469Z,56.40
2018-04-14T11:40:22.829Z,58.80
2018-04-14T11:42:53.906Z,50.40
2018-04-14T11:45:24.732Z,56.60
2018-04-14T11:47:55.358Z,58.63
2018-04-14T11:50:30.689Z,51.37
2018-04-14T11:53:01.102Z,54.27
2018-04-14T11:55:31.614Z,47.20
2018-04-14T11:58:02.270Z,53.40
2018-04-14T12:00:32.805Z,67.43
2018-04-14T12:03:03.791Z,49.47
2018-04-14T12:05:34.405Z,55.73
2018-04-14T12:08:05.054Z,55.93
2018-04-14T12:10:35.649Z,65.13
2018-04-14T12:13:06.660Z,54.90
2018-04-14T12:15:38.193Z,52.60
2018-04-14T12:18:10.523Z,49.20
2018-04-14T12:20:41.488Z,57.60
2018-04-14T12:23:12.569Z,61.60
2018-04-14T12:25:43.057Z,65.17
2018-04-14T12:28:16.122Z,56.53
2018-04-14T12:30:48.282Z,57.87
2018-04-14T12:33:18.749Z,51.27
2018-04-14T12:35:49.234Z,47.87
2018-04-14T12:38:20.729Z,52.53
2018-04-14T12:40:51.870Z,57.20
2018-04-14T12:43:22.821Z,56.80
2018-04-14T12:45:53.709Z,57.33
2018-04-14T12:48:28.095Z,60.17
2018-04-14T12:50:58.657Z,54.23
2018-04-14T12:53:28.973Z,54.07
2018-04-14T12:56:00.122Z,49.80
2018-04-14T12:58:31.234Z,53.53
2018-04-14T13:01:01.947Z,53.93
2018-04-14T13:03:32.550Z,55.50
2018-04-14T13:06:03.253Z,65.73
2018-04-14T13:08:34.123Z,56.60
2018-04-14T13:11:11.999Z,56.30
2018-04-14T13:13:48.393Z,51.80
2018-04-14T13:16:20.727Z,58.87
2018-04-14T13:18:53.645Z,51.63
2018-04-14T13:21:25.902Z,58.37
2018-04-14T13:24:00.842Z,56.40
2018-04-14T13:26:33.096Z,54.77
2018-04-14T13:29:05.733Z,54.63
2018-04-14T13:31:39.980Z,62.60
2018-04-14T13:34:10.468Z,50.20
2018-04-14T13:36:44.183Z,48.17
2018-04-14T13:39:15.922Z,56.87
2018-04-14T13:41:46.511Z,60.17
2018-04-14T13:44:17.313Z,60.87
2018-04-14T13:46:47.998Z,51.00
2018-04-14T13:49:19.058Z,53.60
2018-04-14T13:51:50.334Z,51.73
2018-04-14T13:54:20.809Z,57.87
2018-04-14T13:56:51.048Z,53.20
2018-04-14T13:59:22.045Z,52.93
2018-04-14T14:01:52.721Z,48.67
2018-04-14T14:04:23.124Z,59.63
2018-04-14T14:06:53.992Z,45.83
2018-04-14T14:09:24.458Z,44.70
2018-04-14T14:11:55.858Z,47.57
2018-04-14T14:14:26.681Z,46.60
2018-04-14T14:16:57.919Z,39.53
2018-04-14T14:19:28.465Z,41.70
2018-04-14T14:21:59.266Z,44.63
2018-04-14T14:24:30.059Z,41.30
2018-04-14T14:27:01.334Z,39.30
2018-04-14T14:29:32.335Z,44.03
2018-04-14T14:32:03.006Z,42.97
2018-04-14T14:34:33.669Z,42.40
2018-04-14T14:37:04.580Z,47.80
2018-04-14T14:39:35.263Z,41.50
2018-04-14T14:42:05.702Z,40.73
2018-04-14T14:44:36.371Z,38.57
2018-04-14T14:47:07.891Z,36.30
2018-04-14T14:49:39.665Z,38.50
2018-04-14T14:52:10.720Z,33.97
2018-04-14T14:54:41.328Z,33.70
2018-04-14T14:57:11.990Z,37.00
2018-04-14T14:59:44.016Z,40.70
2018-04-14T15:02:15.217Z,36.63
2018-04-14T15:04:46.168Z,37.20
2018-04-14T15:07:18.391Z,33.03
2018-04-14T15:09:49.282Z,33.87
2018-04-14T15:12:20.072Z,35.67
2018-04-14T15:14:50.730Z,35.03
2018-04-14T15:17:21.378Z,33.70
2018-04-14T15:19:52.592Z,35.70
2018-04-14T15:22:24.323Z,35.37
2018-04-14T15:24:54.729Z,36.40
2018-04-14T15:27:25.313Z,34.87
2018-04-14T15:29:55.884Z,36.40
2018-04-14T15:32:26.906Z,30.97
2018-04-14T15:34:57.420Z,39.23
2018-04-14T15:37:28.401Z,34.37
2018-04-14T15:39:59.010Z,38.30
2018-04-14T15:42:29.814Z,35.30
2018-04-14T15:45:00.340Z,36.33
2018-04-14T15:47:31.989Z,35.27
2018-04-14T15:50:02.561Z,35.87
2018-04-14T15:52:33.475Z,36.70
2018-04-14T15:55:04.060Z,34.67
2018-04-14T15:57:34.475Z,36.07
2018-04-14T16:00:05.322Z,34.80
2018-04-14T16:02:36.258Z,37.40
2018-04-14T16:05:07.488Z,38.10
2018-04-14T16:07:37.955Z,32.90
2018-04-14T16:10:08.640Z,34.57
2018-04-14T16:12:41.322Z,37.67
2018-04-14T16:15:11.725Z,34.57
2018-04-14T16:17:42.258Z,29.07
2018-04-14T16:20:13.570Z,30.57
2018-04-14T16:22:44.353Z,40.87
2018-04-14T16:25:15.054Z,32.80
2018-04-14T16:27:47.622Z,37.40
2018-04-14T16:30:18.243Z,35.00
2018-04-14T16:32:48.933Z,35.50
2018-04-14T16:35:19.898Z,38.10
2018-04-14T16:37:51.674Z,37.83
2018-04-14T16:40:22.028Z,36.40
2018-04-14T16:42:52.679Z,40.27
2018-04-14T16:45:23.611Z,36.20
2018-04-14T16:47:53.994Z,36.53
2018-04-14T16:50:24.510Z,40.23
2018-04-14T16:52:54.830Z,38.60
2018-04-14T16:55:25.370Z,39.30
2018-04-14T16:57:56.329Z,38.13
2018-04-14T17:00:30.113Z,30.90
2018-04-14T17:03:01.304Z,31.40
2018-04-14T17:05:32.231Z,35.53
2018-04-14T17:08:02.564Z,31.30
2018-04-14T17:10:33.359Z,29.27
2018-04-14T17:13:05.012Z,29.50
2018-04-14T17:15:36.161Z,31.90
2018-04-14T17:18:07.533Z,31.83
2018-04-14T17:20:38.647Z,35.67
2018-04-14T17:23:09.040Z,30.70
2018-04-14T17:25:40.060Z,30.50
2018-04-14T17:28:10.800Z,31.43
2018-04-14T17:30:41.239Z,29.50
2018-04-14T17:33:11.929Z,31.80
2018-04-14T17:35:42.363Z,27.80
2018-04-14T17:38:13.071Z,28.93
2018-04-14T17:40:45.433Z,32.73
2018-04-14T17:43:15.961Z,28.10
2018-04-14T17:45:46.583Z,32.83
2018-04-14T17:48:17.011Z,34.73
2018-04-14T17:50:47.819Z,29.40
2018-04-14T17:53:18.125Z,27.80
2018-04-14T17:55:49.137Z,30.53
2018-04-14T17:58:19.705Z,36.40
2018-04-14T18:00:51.523Z,33.73
2018-04-14T18:03:22.342Z,33.50
2018-04-14T18:05:53.264Z,30.10
2018-04-14T18:08:24.087Z,38.47
2018-04-14T18:10:54.593Z,36.00
2018-04-14T18:13:25.528Z,35.80
2018-04-14T18:15:56.113Z,43.53
2018-04-14T18:18:26.588Z,46.23
2018-04-14T18:20:56.882Z,41.63
2018-04-14T18:23:27.510Z,38.60
2018-04-14T18:25:58.826Z,46.23
2018-04-14T18:28:31.686Z,61.90
2018-04-14T18:31:01.986Z,67.37
2018-04-14T18:33:32.603Z,57.43
2018-04-14T18:36:03.256Z,58.17
2018-04-14T18:38:33.827Z,72.80
2018-04-14T18:41:04.362Z,52.70
2018-04-14T18:43:35.137Z,46.77
2018-04-14T18:46:05.614Z,45.73
2018-04-14T18:48:36.064Z,37.80
2018-04-14T18:51:06.474Z,40.17
2018-04-14T18:53:37.142Z,36.80
2018-04-14T18:56:08.647Z,37.23
2018-04-14T18:58:39.157Z,54.30
2018-04-14T19:01:09.546Z,44.63
2018-04-14T19:03:40.506Z,52.10
2018-04-14T19:06:13.041Z,53.20
2018-04-14T19:08:44.308Z,45.90
2018-04-14T19:11:14.712Z,50.50
2018-04-14T19:13:45.369Z,47.30
2018-04-14T19:16:16.250Z,44.10
2018-04-14T19:18:46.746Z,38.30
2018-04-14T19:21:18.046Z,43.47
2018-04-14T19:23:48.899Z,43.20
2018-04-14T19:26:19.795Z,38.83
2018-04-14T19:28:51.910Z,39.20
2018-04-14T19:31:22.753Z,44.50
2018-04-14T19:33:53.589Z,43.10
2018-04-14T19:36:24.133Z,43.80
2018-04-14T19:38:54.841Z,51.77
2018-04-14T19:41:25.915Z,42.30
2018-04-14T19:43:56.563Z,47.97
2018-04-14T19:46:27.162Z,41.23
2018-04-14T19:48:57.503Z,42.00
2018-04-14T19:51:28.048Z,46.20
2018-04-14T19:53:58.590Z,38.30
2018-04-14T19:56:29.690Z,40.73
2018-04-14T19:59:01.513Z,47.60
2018-04-14T20:01:31.917Z,42.13
2018-04-14T20:04:02.359Z,36.33
2018-04-14T20:06:33.019Z,40.40
2018-04-14T20:09:03.801Z,43.03
2018-04-14T20:11:34.513Z,42.33
2018-04-14T20:14:05.604Z,38.60
2018-04-14T20:16:36.138Z,37.07
2018-04-14T20:19:07.153Z,37.83
2018-04-14T20:21:38.339Z,39.20
2018-04-14T20:24:08.973Z,38.53
2018-04-14T20:26:39.473Z,33.70
2018-04-14T20:29:10.489Z,46.67
2018-04-14T20:31:41.112Z,41.97
2018-04-14T20:34:11.715Z,44.60
2018-04-14T20:36:42.486Z,41.23
2018-04-14T20:39:13.162Z,41.00
2018-04-14T20:41:43.698Z,46.20
2018-04-14T20:44:14.167Z,41.10
2018-04-14T20:46:45.403Z,45.50
2018-04-14T20:49:31.785Z,44.20
2018-04-14T20:52:02.991Z,42.20
2018-04-14T20:54:34.007Z,42.57
2018-04-14T20:57:05.212Z,41.73
2018-04-14T20:59:35.680Z,38.03
2018-04-14T21:02:06.076Z,37.43
2018-04-14T21:04:37.448Z,39.10
2018-04-14T21:07:08.336Z,40.23
2018-04-14T21:09:38.933Z,42.37
2018-04-14T21:12:09.298Z,44.60
2018-04-14T21:14:40.450Z,37.60
2018-04-14T21:17:11.218Z,40.63
2018-04-14T21:19:42.122Z,43.30
2018-04-14T21:22:12.593Z,41.93
2018-04-14T21:24:43.834Z,42.40
2018-04-14T21:27:14.409Z,43.43
2018-04-14T21:29:45.412Z,44.57
2018-04-14T21:32:15.766Z,41.43
2018-04-14T21:34:46.174Z,51.87
2018-04-14T21:37:16.633Z,43.63
2018-04-14T21:39:47.307Z,47.20
2018-04-14T21:42:18.310Z,44.70
2018-04-14T21:44:48.741Z,43.00
2018-04-14T21:47:19.145Z,44.63
2018-04-14T21:49:49.879Z,42.00
2018-04-14T21:52:20.638Z,43.47
2018-04-14T21:54:51.203Z,40.33
2018-04-14T21:57:22.417Z,39.77
2018-04-14T21:59:53.966Z,39.60
2018-04-14T22:02:24.398Z,43.20
2018-04-14T22:04:55.261Z,49.17
2018-04-14T22:07:26.414Z,44.50
2018-04-14T22:09:57.112Z,41.33
2018-04-14T22:12:28.301Z,39.07
2018-04-14T22:14:59.366Z,44.47
2018-04-14T22:17:30.117Z,41.70
2018-04-14T22:20:01.741Z,39.03
2018-04-14T22:22:32.510Z,34.63
2018-04-14T22:25:03.638Z,46.97
2018-04-14T22:27:33.986Z,48.20
2018-04-14T22:30:04.746Z,43.83
2018-04-14T22:32:35.236Z,40.77
2018-04-14T22:35:05.857Z,45.00
2018-04-14T22:37:36.272Z,43.17
2018-04-14T22:40:06.505Z,41.50
2018-04-14T22:42:37.522Z,40.87
2018-04-14T22:45:07.935Z,44.40
2018-04-14T22:47:39.875Z,39.73
2018-04-14T22:50:10.538Z,45.87
2018-04-14T22:52:41.002Z,41.07
2018-04-14T22:55:11.379Z,49.77
2018-04-14T22:57:41.766Z,36.30
2018-04-14T23:00:13.761Z,44.17
2018-04-14T23:02:44.276Z,38.17
2018-04-14T23:05:15.230Z,42.40
2018-04-14T23:07:45.808Z,38.77
2018-04-14T23:10:16.183Z,45.17
2018-04-14T23:12:46.989Z,44.27
2018-04-14T23:15:17.773Z,42.10
2018-04-14T23:17:48.279Z,40.50
2018-04-14T23:20:19.597Z,39.60
2018-04-14T23:22:50.163Z,38.43
2018-04-14T23:25:20.777Z,41.20
2018-04-14T23:27:51.453Z,41.60
2018-04-14T23:30:22.840Z,43.70
2018-04-14T23:32:53.764Z,41.90
2018-04-14T23:35:24.464Z,43.37
2018-04-14T23:37:54.734Z,46.40
2018-04-14T23:40:25.257Z,40.17
2018-04-14T23:42:55.964Z,40.57
2018-04-14T23:45:26.535Z,44.83
2018-04-14T23:47:56.931Z,43.73
2018-04-14T23:50:27.621Z,46.83
2018-04-14T23:52:58.189Z,44.83
2018-04-14T23:55:29.446Z,40.10
2018-04-14T23:58:00.438Z,42.30
